createdAt,value
2023-02-01T00:02:00.975Z,5.37
2023-02-01T00:04:41.612Z,5.39
2023-02-01T00:07:14.343Z,5.60
2023-02-01T00:09:41.500Z,5.75
2023-02-01T00:12:08.139Z,5.95
2023-02-01T00:14:38.798Z,5.83
2023-02-01T00:17:06.996Z,5.99
2023-02-01T00:19:34.806Z,6.28
2023-02-01T00:22:01.348Z,6.35
2023-02-01T00:24:28.956Z,6.16
2023-02-01T00:26:56.160Z,5.88
2023-02-01T00:29:24.308Z,5.87
2023-02-01T00:31:51.997Z,5.80
2023-02-01T00:34:22.920Z,5.27
2023-02-01T00:36:50.741Z,5.12
2023-02-01T00:39:17.547Z,5.09
2023-02-01T00:41:45.090Z,5.02
2023-02-01T00:44:11.671Z,4.92
2023-02-01T00:46:38.594Z,5.00
2023-02-01T00:49:07.635Z,5.22
2023-02-01T00:51:34.775Z,5.36
2023-02-01T00:54:01.418Z,5.26
2023-02-01T00:56:27.946Z,5.22
2023-02-01T00:58:54.914Z,5.23
2023-02-01T01:01:23.387Z,5.21
2023-02-01T01:03:52.278Z,4.74
2023-02-01T01:06:23.870Z,4.38
2023-02-01T01:08:54.770Z,4.41
2023-02-01T01:11:26.614Z,4.43
2023-02-01T01:13:56.061Z,4.34
2023-02-01T01:16:23.686Z,4.49
2023-02-01T01:18:50.405Z,4.49
2023-02-01T01:21:17.031Z,4.67
2023-02-01T01:23:44.425Z,4.70
2023-02-01T01:26:22.853Z,4.59
2023-02-01T01:28:49.846Z,4.44
2023-02-01T01:31:17.319Z,4.55
2023-02-01T01:33:48.371Z,4.46
2023-02-01T01:36:14.920Z,4.59
2023-02-01T01:38:41.785Z,4.58
2023-02-01T01:41:11.848Z,4.43
2023-02-01T01:43:50.732Z,4.29
2023-02-01T01:46:23.836Z,4.14
2023-02-01T01:48:54.454Z,4.27
2023-02-01T01:51:21.702Z,4.42
2023-02-01T01:53:53.974Z,4.56
2023-02-01T01:56:22.001Z,4.68
2023-02-01T01:58:48.841Z,4.61
2023-02-01T02:01:15.627Z,4.74
2023-02-01T02:03:45.314Z,4.84
2023-02-01T02:06:21.436Z,5.10
2023-02-01T02:08:47.926Z,5.10
2023-02-01T02:11:16.662Z,4.99
2023-02-01T02:13:45.151Z,4.88
2023-02-01T02:16:26.453Z,4.86
2023-02-01T02:19:12.399Z,5.10
2023-02-01T02:21:53.815Z,5.39
2023-02-01T02:24:55.940Z,5.40
2023-02-01T02:27:24.739Z,5.48
2023-02-01T02:30:08.201Z,5.52
2023-02-01T02:32:52.740Z,5.28
2023-02-01T02:35:26.956Z,5.11
2023-02-01T02:37:55.141Z,5.28
2023-02-01T02:40:25.455Z,5.45
2023-02-01T02:43:30.559Z,5.33
2023-02-01T02:46:37.874Z,5.10
2023-02-01T02:49:15.930Z,5.36
2023-02-01T02:52:38.875Z,5.55
2023-02-01T02:55:06.231Z,5.45
2023-02-01T02:57:59.371Z,5.55
2023-02-01T03:00:50.314Z,5.65
2023-02-01T03:03:36.584Z,6.10
2023-02-01T03:06:03.429Z,6.12
2023-02-01T03:08:31.382Z,6.10
2023-02-01T03:11:04.769Z,6.36
2023-02-01T03:13:51.701Z,6.35
2023-02-01T03:16:40.401Z,6.20
2023-02-01T03:19:08.912Z,5.58
2023-02-01T03:21:37.341Z,5.56
2023-02-01T03:24:33.384Z,6.15
2023-02-01T03:27:05.795Z,6.40
2023-02-01T03:29:39.111Z,6.42
2023-02-01T03:32:05.843Z,6.72
2023-02-01T03:34:33.923Z,6.80
2023-02-01T03:37:06.526Z,6.49
2023-02-01T03:40:11.936Z,6.64
2023-02-01T03:42:42.170Z,6.85
2023-02-01T03:45:14.507Z,6.99
2023-02-01T03:47:44.209Z,6.95
2023-02-01T03:50:12.929Z,6.98
2023-02-01T03:52:47.684Z,6.92
2023-02-01T03:55:16.885Z,6.91
2023-02-01T03:58:09.262Z,6.92
2023-02-01T04:00:35.906Z,6.53
2023-02-01T04:03:06.737Z,6.46
2023-02-01T04:05:34.140Z,6.28
2023-02-01T04:08:05.421Z,6.51
2023-02-01T04:10:32.142Z,6.43
2023-02-01T04:12:58.904Z,6.45
2023-02-01T04:15:25.875Z,6.68
2023-02-01T04:17:52.949Z,6.81
2023-02-01T04:20:19.701Z,6.76
2023-02-01T04:22:46.352Z,6.70
2023-02-01T04:25:13.075Z,6.54
2023-02-01T04:30:09.995Z,6.38
2023-02-01T04:32:37.579Z,6.45
2023-02-01T04:35:04.812Z,6.45
2023-02-01T04:37:31.996Z,6.30
2023-02-01T04:39:58.839Z,6.30
2023-02-01T04:42:26.773Z,6.39
2023-02-01T04:44:53.623Z,6.41
2023-02-01T04:47:21.820Z,6.23
2023-02-01T04:49:48.461Z,6.49
2023-02-01T04:52:15.129Z,6.58
2023-02-01T04:54:41.768Z,6.81
2023-02-01T04:57:08.386Z,6.81
2023-02-01T04:59:35.535Z,6.71
2023-02-01T05:02:02.113Z,6.40
2023-02-01T05:04:29.961Z,6.03
2023-02-01T05:06:56.767Z,5.82
2023-02-01T05:09:23.393Z,5.88
2023-02-01T05:12:08.937Z,5.86
2023-02-01T05:14:35.886Z,6.06
2023-02-01T05:17:02.818Z,6.49
2023-02-01T05:19:29.443Z,6.67
2023-02-01T05:21:56.167Z,6.24
2023-02-01T05:24:22.767Z,6.29
2023-02-01T05:26:50.115Z,6.24
2023-02-01T05:29:17.243Z,6.17
2023-02-01T05:31:47.649Z,6.04
2023-02-01T05:34:15.080Z,5.98
2023-02-01T05:36:41.704Z,5.78
2023-02-01T05:39:08.711Z,5.69
2023-02-01T05:41:35.403Z,5.60
2023-02-01T05:44:02.987Z,5.62
2023-02-01T05:46:30.041Z,5.05
2023-02-01T08:44:54.372Z,5.11
2023-02-01T08:47:23.869Z,6.32
2023-02-01T08:49:50.823Z,6.74
2023-02-01T08:52:18.150Z,7.50
2023-02-01T08:54:45.006Z,7.93
2023-02-01T08:57:12.485Z,8.08
2023-02-01T08:59:40.048Z,8.05
2023-02-01T09:02:11.368Z,8.55
2023-02-01T09:04:38.262Z,8.66
2023-02-01T09:07:05.579Z,8.86
2023-02-01T09:09:33.810Z,8.69
2023-02-01T09:12:01.485Z,8.56
2023-02-01T09:14:31.607Z,8.84
2023-02-01T09:17:00.006Z,9.25
2023-02-01T09:19:28.807Z,9.78
2023-02-01T09:21:55.919Z,10.23
2023-02-01T09:24:22.884Z,11.00
2023-02-01T09:26:50.052Z,11.72
2023-02-01T09:29:16.917Z,12.40
2023-02-01T09:31:49.704Z,12.13
2023-02-01T09:34:21.052Z,12.28
2023-02-01T09:36:50.427Z,12.30
2023-02-01T09:39:17.466Z,12.55
2023-02-01T09:42:05.889Z,12.63
2023-02-01T09:44:52.744Z,12.72
2023-02-01T09:47:25.009Z,12.66
2023-02-01T09:50:05.372Z,12.24
2023-02-01T09:52:41.222Z,12.24
2023-02-01T09:55:15.936Z,12.67
2023-02-01T09:58:08.653Z,12.88
2023-02-01T10:00:38.111Z,12.95
2023-02-01T10:03:06.377Z,13.02
2023-02-01T10:05:58.417Z,12.57
2023-02-01T10:08:34.282Z,11.97
2023-02-01T10:11:21.893Z,11.85
2023-02-01T10:14:13.830Z,11.73
2023-02-01T10:16:52.992Z,11.44
2023-02-01T10:19:41.875Z,10.49
2023-02-01T10:22:11.087Z,10.07
2023-02-01T10:24:41.100Z,10.47
2023-02-01T10:27:12.028Z,10.37
2023-02-01T10:29:41.733Z,10.23
2023-02-01T10:32:15.129Z,10.24
2023-02-01T10:34:43.739Z,10.06
2023-02-01T10:37:32.561Z,10.11
2023-02-01T10:40:03.399Z,9.86
2023-02-01T10:42:31.981Z,10.02
2023-02-01T10:45:00.477Z,9.99
2023-02-01T10:47:28.147Z,9.89
2023-02-01T10:50:15.984Z,9.49
2023-02-01T10:52:49.606Z,8.86
2023-02-01T10:55:30.611Z,8.83
2023-02-01T10:58:04.056Z,9.08
2023-02-01T11:00:44.630Z,9.15
2023-02-01T11:03:32.658Z,9.39
2023-02-01T11:06:00.513Z,8.44
2023-02-01T11:08:32.639Z,8.54
2023-02-01T11:11:02.750Z,8.82
2023-02-01T11:13:34.156Z,8.86
2023-02-01T11:16:04.541Z,7.78
2023-02-01T11:18:35.407Z,7.37
2023-02-01T11:21:02.497Z,7.61
2023-02-01T11:23:31.616Z,7.92
2023-02-01T11:26:00.278Z,8.07
2023-02-01T11:28:32.638Z,7.93
2023-02-01T11:31:05.839Z,7.75
2023-02-01T11:33:37.281Z,7.60
2023-02-01T11:36:09.838Z,7.81
2023-02-01T11:38:37.931Z,8.29
2023-02-01T11:41:27.187Z,8.19
2023-02-01T11:43:56.772Z,8.43
2023-02-01T11:46:30.281Z,8.37
2023-02-01T11:48:57.759Z,8.28
2023-02-01T11:51:51.063Z,8.26
2023-02-01T11:54:41.387Z,7.76
2023-02-01T11:57:15.474Z,8.10
2023-02-01T12:00:03.811Z,8.30
2023-02-01T12:02:58.298Z,8.73
2023-02-01T12:05:47.937Z,8.62
2023-02-01T12:08:46.118Z,8.47
2023-02-01T12:11:43.755Z,8.67
2023-02-01T12:14:20.768Z,8.41
2023-02-01T12:17:04.787Z,8.60
2023-02-01T12:20:09.718Z,8.53
2023-02-01T12:22:52.044Z,8.51
2023-02-01T12:25:42.737Z,8.70
2023-02-01T12:28:37.313Z,8.47
2023-02-01T12:31:13.699Z,8.52
2023-02-01T12:34:01.953Z,8.68
2023-02-01T12:37:08.574Z,9.14
2023-02-01T12:39:48.071Z,9.02
2023-02-01T12:42:36.881Z,8.76
2023-02-01T12:45:16.363Z,8.96
2023-02-01T12:47:58.548Z,8.76
2023-02-01T12:50:30.091Z,8.65
2023-02-01T12:53:07.420Z,8.19
2023-02-01T12:55:39.457Z,7.94
2023-02-01T12:58:22.207Z,8.37
2023-02-01T13:01:09.385Z,8.97
2023-02-01T13:03:50.855Z,9.24
2023-02-01T13:07:01.230Z,9.44
2023-02-01T13:09:34.946Z,9.26
2023-02-01T13:12:32.315Z,9.47
2023-02-01T13:15:11.950Z,9.74
2023-02-01T13:17:40.670Z,9.56
2023-02-01T13:20:28.773Z,9.74
2023-02-01T13:23:25.520Z,9.88
2023-02-01T13:25:54.227Z,9.73
2023-02-01T13:28:30.458Z,9.50
2023-02-01T13:31:20.083Z,9.53
2023-02-01T13:34:29.539Z,8.74
2023-02-01T13:37:13.181Z,9.00
2023-02-01T13:39:58.534Z,8.97
2023-02-01T13:43:14.910Z,9.01
2023-02-01T17:43:49.079Z,4.32
2023-02-01T17:46:32.379Z,4.93
2023-02-01T17:59:19.364Z,5.45
2023-02-01T18:19:58.071Z,6.29
2023-02-01T18:22:25.127Z,6.21
2023-02-01T18:24:52.145Z,6.12
2023-02-01T18:27:19.236Z,5.93
2023-02-01T18:29:48.013Z,5.93
2023-02-01T18:32:14.846Z,6.24
2023-02-01T18:34:42.019Z,6.29
2023-02-01T18:37:09.557Z,6.36
2023-02-01T18:39:40.132Z,6.35
2023-02-01T18:42:10.038Z,6.23
2023-02-01T18:44:37.035Z,6.24
2023-02-01T18:47:04.418Z,6.28
2023-02-01T18:49:32.101Z,6.32
2023-02-01T18:51:59.713Z,6.25
2023-02-01T18:54:27.885Z,6.35
2023-02-01T18:56:55.598Z,6.32
2023-02-01T18:59:22.491Z,6.36
2023-02-01T19:01:49.329Z,6.43
2023-02-01T19:04:26.118Z,6.34
2023-02-01T19:06:54.101Z,6.31
2023-02-01T19:09:22.806Z,6.36
2023-02-01T19:11:49.651Z,6.59
2023-02-01T19:14:16.302Z,6.70
2023-02-01T19:16:43.725Z,6.78
2023-02-01T19:19:10.648Z,6.68
2023-02-01T19:21:37.607Z,6.51
2023-02-01T19:24:05.003Z,6.36
2023-02-01T19:26:32.144Z,6.50
2023-02-01T19:28:59.362Z,6.58
2023-02-01T19:31:26.380Z,6.49
2023-02-01T19:33:54.008Z,6.55
2023-02-01T19:36:20.683Z,6.62
2023-02-01T19:38:47.545Z,6.71
2023-02-01T19:41:14.200Z,6.84
2023-02-01T19:43:40.860Z,6.82
2023-02-01T19:46:07.808Z,6.69
2023-02-01T19:48:35.943Z,6.69
2023-02-01T19:51:04.068Z,6.72
2023-02-01T19:53:30.752Z,6.85
2023-02-01T19:56:01.347Z,6.96
2023-02-01T19:58:29.249Z,6.95
2023-02-01T20:00:57.474Z,7.00
2023-02-01T20:03:24.748Z,7.21
2023-02-01T20:05:52.434Z,7.27
2023-02-01T20:08:19.365Z,7.04
2023-02-01T20:10:46.198Z,6.95
2023-02-01T20:13:13.653Z,6.95
2023-02-01T20:15:43.179Z,6.96
2023-02-01T20:18:10.407Z,7.26
2023-02-01T20:20:37.371Z,7.25
2023-02-01T20:23:05.994Z,7.22
2023-02-01T20:25:36.058Z,7.44
2023-02-01T20:28:03.277Z,7.37
2023-02-01T20:30:31.708Z,7.22
2023-02-01T20:32:58.595Z,7.09
2023-02-01T20:35:25.814Z,7.12
2023-02-01T20:37:53.549Z,7.23
2023-02-01T20:40:20.385Z,7.37
2023-02-01T20:42:47.283Z,7.31
2023-02-01T20:45:14.331Z,7.38
2023-02-01T20:47:41.700Z,7.51
2023-02-01T20:50:09.351Z,7.60
2023-02-01T20:52:35.869Z,7.69
2023-02-01T20:55:02.838Z,7.70
2023-02-01T20:57:29.893Z,7.77
2023-02-01T20:59:58.715Z,7.94
2023-02-01T21:02:26.021Z,7.91
2023-02-01T21:04:53.082Z,7.89
2023-02-01T21:07:20.068Z,7.72
2023-02-01T21:09:46.790Z,7.67
2023-02-01T21:12:13.607Z,7.70
2023-02-01T21:14:40.823Z,7.82
2023-02-01T21:17:07.550Z,7.92
2023-02-01T21:19:42.683Z,7.80
2023-02-01T21:22:13.275Z,8.00
2023-02-01T21:27:24.060Z,8.14
2023-02-01T21:29:50.917Z,7.83
2023-02-01T21:32:17.741Z,7.74
2023-02-01T21:34:44.277Z,7.49
2023-02-01T21:37:11.642Z,7.38
2023-02-01T21:39:38.381Z,7.41
2023-02-01T21:42:14.120Z,7.70
2023-02-01T21:44:41.070Z,8.10
2023-02-01T21:47:09.211Z,8.15
2023-02-01T21:49:36.406Z,8.18
2023-02-01T21:52:04.235Z,8.06
2023-02-01T21:54:31.005Z,8.28
2023-02-01T21:56:57.640Z,8.24
2023-02-01T21:59:24.300Z,8.20
2023-02-01T22:01:50.897Z,8.10
2023-02-01T22:04:17.618Z,7.63
2023-02-01T22:06:47.884Z,7.75
2023-02-01T22:09:19.955Z,7.93
2023-02-01T22:11:46.866Z,8.22
2023-02-01T22:14:15.677Z,8.25
2023-02-01T22:16:42.460Z,8.28
2023-02-01T22:19:09.798Z,8.43
2023-02-01T22:21:38.281Z,8.39
2023-02-01T22:24:06.122Z,8.48
2023-02-01T22:26:33.101Z,8.49
2023-02-01T22:28:59.686Z,8.70
2023-02-01T22:31:26.337Z,8.59
2023-02-01T22:33:53.193Z,8.38
2023-02-01T22:36:19.820Z,8.18
2023-02-01T22:38:47.788Z,8.45
2023-02-01T22:41:14.435Z,8.31
2023-02-01T22:43:41.171Z,8.51
2023-02-01T22:46:14.192Z,8.57
2023-02-01T22:48:41.769Z,8.66
2023-02-01T22:51:21.957Z,8.78
2023-02-01T22:53:56.192Z,9.21
2023-02-01T22:56:27.481Z,9.41
2023-02-01T22:58:55.747Z,9.31
2023-02-01T23:01:22.530Z,9.14
2023-02-01T23:03:49.870Z,8.96
2023-02-01T23:06:18.009Z,8.76
2023-02-01T23:08:45.404Z,8.91
2023-02-01T23:11:12.140Z,9.11
2023-02-01T23:13:39.493Z,8.93
2023-02-01T23:16:07.970Z,9.09
2023-02-01T23:18:35.026Z,9.34
2023-02-01T23:21:03.583Z,9.63
2023-02-01T23:23:30.106Z,9.61
2023-02-01T23:25:58.098Z,9.55
2023-02-01T23:28:26.427Z,9.51
2023-02-01T23:30:53.177Z,9.70
2023-02-01T23:33:26.418Z,10.23
2023-02-01T23:35:57.971Z,10.21
2023-02-01T23:38:26.760Z,10.29
2023-02-01T23:40:58.218Z,10.16
2023-02-01T23:43:43.737Z,10.16
2023-02-01T23:46:10.667Z,10.31
2023-02-01T23:48:37.753Z,10.11
2023-02-01T23:51:04.936Z,10.64
2023-02-01T23:53:32.908Z,10.39
2023-02-01T23:56:00.472Z,10.36
2023-02-01T23:58:27.139Z,10.31
